Time;durP1;ratioP1;P1;durP2;ratioP2;P2;SDS_P1;SDS_P2;PMS_P1;PMS_P2;Temp;Humidity;BMP_temperature;BMP_pressure;BME280_temperature;BME280_humidity;BME280_pressure;Samples;Min_cycle;Max_cycle;Signal;HPM_P1;HPM_P2
2021/04/06 00:02:33;;;;;;;5.07;2.40;;;1.80;99.90;;;;;;4995875;28;20642;-60
2021/04/06 00:05:07;;;;;;;4.17;2.20;;;1.80;99.90;;;;;;5000178;28;20928;-59
2021/04/06 00:07:42;;;;;;;6.40;2.40;;;1.80;99.90;;;;;;5002012;28;20652;-57
2021/04/06 00:10:16;;;;;;;2.97;1.80;;;1.90;99.90;;;;;;4987286;28;20679;-59
2021/04/06 00:12:59;;;;;;;2.00;1.90;;;1.80;99.90;;;;;;5000733;28;20770;-59
2021/04/06 00:15:29;;;;;;;5.70;3.00;;;1.90;99.90;;;;;;5002149;28;20698;-62
2021/04/06 00:18:04;;;;;;;5.13;2.30;;;1.90;99.90;;;;;;5001032;28;20672;-67
2021/04/06 00:20:52;;;;;;;4.80;2.20;;;1.90;99.90;;;;;;4999108;28;21255;-66
2021/04/06 00:23:26;;;;;;;3.10;1.73;;;1.90;99.90;;;;;;5003300;28;20711;-62
2021/04/06 00:25:53;;;;;;;5.90;1.83;;;2.00;99.90;;;;;;5005046;28;20644;-65
2021/04/06 00:28:30;;;;;;;4.73;1.87;;;2.00;99.90;;;;;;4999788;28;20769;-62
2021/04/06 00:31:08;;;;;;;3.50;1.93;;;2.00;99.90;;;;;;5001712;28;20648;-65
2021/04/06 00:33:48;;;;;;;4.30;1.90;;;2.00;99.90;;;;;;5004951;28;21714;-65
2021/04/06 00:36:22;;;;;;;4.03;1.50;;;2.00;99.90;;;;;;5012341;28;22388;-65
2021/04/06 00:38:57;;;;;;;6.37;2.07;;;2.10;99.90;;;;;;5008145;28;20633;-64
2021/04/06 00:41:28;;;;;;;5.07;1.90;;;2.00;99.90;;;;;;4997590;28;20736;-63
2021/04/06 00:44:00;;;;;;;2.57;1.60;;;2.00;99.90;;;;;;5000689;28;21189;-66
2021/04/06 00:46:31;;;;;;;3.13;1.60;;;1.90;99.90;;;;;;5002672;28;20966;-64
2021/04/06 00:49:03;;;;;;;3.77;1.73;;;1.90;99.90;;;;;;4997363;28;20633;-66
2021/04/06 00:51:41;;;;;;;3.43;1.70;;;1.80;99.90;;;;;;4999443;28;21387;-66
2021/04/06 00:54:23;;;;;;;7.20;1.87;;;1.80;99.90;;;;;;5001083;28;22762;-66
2021/04/06 00:56:59;;;;;;;3.60;1.70;;;1.80;99.90;;;;;;4994997;28;20633;-58
2021/04/06 00:59:33;;;;;;;2.60;1.30;;;1.80;99.90;;;;;;5014683;28;21130;-59
2021/04/06 01:02:22;;;;;;;4.43;1.73;;;1.90;99.90;;;;;;5002061;28;21522;-59
2021/04/06 01:05:20;;;;;;;3.07;1.50;;;1.80;99.90;;;;;;4993959;28;20831;-58
2021/04/06 01:07:50;;;;;;;3.80;1.63;;;1.80;99.90;;;;;;4999625;28;20653;-62
2021/04/06 01:10:21;;;;;;;2.53;1.60;;;1.90;99.90;;;;;;5001816;28;20646;-64
2021/04/06 01:12:49;;;;;;;3.57;1.53;;;1.90;99.90;;;;;;4998567;28;20725;-65
2021/04/06 01:15:20;;;;;;;4.43;2.33;;;1.90;99.90;;;;;;5003352;28;20617;-65
2021/04/06 01:17:51;;;;;;;2.63;1.57;;;1.90;99.90;;;;;;4997229;28;20902;-61
2021/04/06 01:20:25;;;;;;;2.80;1.53;;;1.90;99.90;;;;;;5002692;28;20753;-64
2021/04/06 01:23:01;;;;;;;3.40;1.80;;;1.90;99.90;;;;;;4998667;28;21294;-64
2021/04/06 01:25:37;;;;;;;2.33;1.30;;;2.00;99.90;;;;;;4994991;28;22458;-67
2021/04/06 01:28:17;;;;;;;5.33;2.30;;;1.90;99.90;;;;;;4997310;28;21188;-66
2021/04/06 01:31:09;;;;;;;2.77;1.47;;;1.90;99.90;;;;;;4993279;28;20712;-66
2021/04/06 01:33:53;;;;;;;2.47;1.50;;;1.80;99.90;;;;;;5000198;28;20627;-63
2021/04/06 01:36:28;;;;;;;6.00;1.47;;;1.80;99.90;;;;;;5010048;28;21266;-66
2021/04/06 01:38:57;;;;;;;3.63;1.77;;;1.80;99.90;;;;;;4996891;28;20626;-62
2021/04/06 01:41:25;;;;;;;3.00;1.30;;;1.80;99.90;;;;;;4995019;28;20686;-66
2021/04/06 01:44:02;;;;;;;4.70;1.97;;;1.80;99.90;;;;;;5008192;28;20676;-66
2021/04/06 01:46:49;;;;;;;4.43;1.80;;;1.80;99.90;;;;;;4994589;28;20609;-64
2021/04/06 01:49:20;;;;;;;2.17;1.60;;;1.80;99.90;;;;;;4999720;28;20708;-66
2021/04/06 01:51:51;;;;;;;2.80;1.50;;;1.80;99.90;;;;;;4995879;28;21692;-65
2021/04/06 01:54:19;;;;;;;2.00;1.30;;;1.80;99.90;;;;;;4996382;28;20764;-66
2021/04/06 01:57:01;;;;;;;2.63;1.70;;;1.90;99.90;;;;;;4997388;28;22990;-62
2021/04/06 01:59:33;;;;;;;3.40;2.00;;;1.80;99.90;;;;;;4991097;28;20661;-66
2021/04/06 02:02:03;;;;;;;2.33;1.60;;;1.80;99.90;;;;;;4998258;28;20743;-66
2021/04/06 02:04:40;;;;;;;2.20;1.67;;;1.80;99.90;;;;;;5005368;28;20623;-64
2021/04/06 02:07:14;;;;;;;3.57;1.50;;;1.90;99.90;;;;;;4998315;28;20658;-60
2021/04/06 02:09:46;;;;;;;2.27;1.43;;;1.90;99.90;;;;;;4995946;28;20637;-59
2021/04/06 02:12:26;;;;;;;3.20;2.07;;;1.90;99.90;;;;;;5008236;28;20730;-59
2021/04/06 02:14:56;;;;;;;2.17;1.93;;;2.00;99.90;;;;;;5002451;28;21153;-59
2021/04/06 02:17:26;;;;;;;3.80;1.73;;;2.00;99.90;;;;;;5001084;28;21311;-59
2021/04/06 02:19:55;;;;;;;5.57;1.67;;;2.00;99.90;;;;;;4999710;28;20647;-59
2021/04/06 02:22:25;;;;;;;3.27;1.67;;;2.00;99.90;;;;;;5000929;28;20740;-58
2021/04/06 02:24:53;;;;;;;4.17;1.90;;;1.90;99.90;;;;;;4995522;28;20655;-59
2021/04/06 02:27:39;;;;;;;3.17;2.07;;;1.90;99.90;;;;;;5001288;28;21430;-59
2021/04/06 02:30:09;;;;;;;3.03;1.90;;;1.90;99.90;;;;;;5017166;28;20769;-59
2021/04/06 02:32:37;;;;;;;3.07;2.20;;;1.90;99.90;;;;;;5006477;28;20666;-59
2021/04/06 02:35:16;;;;;;;3.23;1.70;;;1.90;99.90;;;;;;5001717;28;20729;-63
2021/04/06 02:37:45;;;;;;;3.97;1.90;;;2.00;99.90;;;;;;5002184;28;21199;-63
2021/04/06 02:40:20;;;;;;;3.00;1.57;;;2.00;99.90;;;;;;4999470;28;20675;-67
2021/04/06 02:42:52;;;;;;;3.53;1.60;;;2.00;99.90;;;;;;5001254;28;20691;-65
2021/04/06 02:45:36;;;;;;;;;;;;;;;;;;;;;
2021/04/06 02:48:06;;;;;;;2.83;1.90;;;2.00;99.90;;;;;;5005896;28;20722;-65
2021/04/06 02:50:35;;;;;;;2.13;1.93;;;2.00;99.90;;;;;;4998838;28;21288;-63
2021/04/06 02:53:10;;;;;;;4.50;2.50;;;2.10;99.90;;;;;;4996545;28;20703;-65
2021/04/06 02:55:39;;;;;;;2.20;1.63;;;2.20;99.90;;;;;;5003911;28;20621;-66
2021/04/06 02:58:22;;;;;;;2.23;1.87;;;2.20;99.90;;;;;;5002530;28;20606;-58
2021/04/06 03:00:53;;;;;;;5.97;2.40;;;2.20;99.90;;;;;;5017444;28;21388;-58
2021/04/06 03:03:30;;;;;;;2.40;1.77;;;2.10;99.90;;;;;;5000254;28;20693;-59
2021/04/06 03:06:24;;;;;;;4.67;2.00;;;2.10;99.90;;;;;;5005958;28;20623;-59
2021/04/06 03:09:03;;;;;;;3.43;1.90;;;2.10;99.90;;;;;;5001591;28;20657;-59
2021/04/06 03:11:40;;;;;;;3.90;2.03;;;2.10;99.90;;;;;;5001601;28;21268;-59
2021/04/06 03:14:12;;;;;;;3.43;2.03;;;2.20;99.90;;;;;;4999636;28;21510;-58
2021/04/06 03:16:57;;;;;;;4.37;2.30;;;2.20;99.90;;;;;;5002186;28;21424;-59
2021/04/06 03:19:31;;;;;;;3.97;2.17;;;2.30;99.90;;;;;;5003901;28;20764;-58
2021/04/06 03:22:06;;;;;;;4.30;2.53;;;2.20;99.90;;;;;;5002689;28;21091;-59
2021/04/06 03:24:51;;;;;;;4.80;2.70;;;2.30;99.90;;;;;;5007308;28;21301;-59
2021/04/06 03:27:36;;;;;;;7.00;2.53;;;2.30;99.90;;;;;;5008787;28;20714;-59
2021/04/06 03:30:32;;;;;;;2.70;2.50;;;2.30;99.90;;;;;;5002325;28;20630;-59
2021/04/06 03:33:05;;;;;;;4.67;3.13;;;2.30;99.90;;;;;;5002319;28;20707;-58
2021/04/06 03:35:34;;;;;;;5.80;2.70;;;2.30;99.90;;;;;;5019148;28;20741;-59
2021/04/06 03:38:02;;;;;;;4.07;2.60;;;2.30;99.90;;;;;;5007215;28;21159;-58
2021/04/06 03:41:05;;;;;;;5.67;3.07;;;2.40;99.90;;;;;;4999705;28;20771;-58
2021/04/06 03:43:46;;;;;;;4.43;3.07;;;2.40;99.90;;;;;;4996421;28;20689;-58
2021/04/06 03:46:23;;;;;;;5.80;3.07;;;2.30;99.90;;;;;;5000609;28;20772;-59
2021/04/06 03:48:50;;;;;;;8.30;3.57;;;2.40;99.90;;;;;;5002551;28;20990;-60
2021/04/06 03:51:24;;;;;;;4.77;3.80;;;2.40;99.90;;;;;;5001608;28;20719;-58
2021/04/06 03:54:03;;;;;;;;;;;;;;;;;;;;;
2021/04/06 03:56:33;;;;;;;6.67;4.13;;;2.40;99.90;;;;;;5004206;28;20618;-60
2021/04/06 03:59:02;;;;;;;9.90;5.17;;;2.40;99.90;;;;;;5018714;28;20741;-59
2021/04/06 04:01:31;;;;;;;5.30;4.80;;;2.40;99.90;;;;;;5004753;28;20721;-59
2021/04/06 04:04:14;;;;;;;;;;;;;;;;;;;;;
2021/04/06 04:07:02;;;;;;;6.77;4.93;;;2.50;99.90;;;;;;5003245;28;20618;-59
2021/04/06 04:09:38;;;;;;;8.47;4.80;;;2.50;99.90;;;;;;5000014;28;20707;-58
2021/04/06 04:12:09;;;;;;;7.20;4.37;;;2.50;99.90;;;;;;5008840;28;20649;-59
2021/04/06 04:14:37;;;;;;;5.80;3.80;;;2.60;99.90;;;;;;5001895;28;21348;-59
2021/04/06 04:17:06;;;;;;;7.33;4.40;;;2.50;99.90;;;;;;5002411;28;23277;-60
2021/04/06 04:19:43;;;;;;;6.53;3.30;;;2.50;99.90;;;;;;5004583;28;21470;-58
2021/04/06 04:22:18;;;;;;;8.50;4.40;;;2.40;99.90;;;;;;4997200;28;20709;-59
2021/04/06 04:24:46;;;;;;;6.77;3.50;;;2.40;99.90;;;;;;5002035;28;20622;-59
2021/04/06 04:27:12;;;;;;;7.20;4.20;;;2.50;99.90;;;;;;5003545;28;20646;-59
2021/04/06 04:29:44;;;;;;;6.83;3.90;;;2.50;99.90;;;;;;5001380;28;20681;-58
2021/04/06 04:32:13;;;;;;;4.53;2.93;;;2.60;99.90;;;;;;4997022;28;20377;-59
2021/04/06 04:34:44;;;;;;;6.03;3.90;;;2.70;99.90;;;;;;5005643;28;20619;-60
2021/04/06 04:37:15;;;;;;;7.70;3.10;;;2.60;99.90;;;;;;5009109;28;20614;-60
2021/04/06 04:39:43;;;;;;;5.40;3.33;;;2.60;99.90;;;;;;5001953;28;21082;-59
2021/04/06 04:42:11;;;;;;;11.33;3.63;;;2.60;99.90;;;;;;5006356;28;20650;-60
2021/04/06 04:44:46;;;;;;;6.43;3.20;;;2.60;99.90;;;;;;4998599;28;20630;-57
2021/04/06 04:47:16;;;;;;;8.17;3.10;;;2.70;99.90;;;;;;5010541;28;21073;-60
2021/04/06 04:49:44;;;;;;;6.07;2.83;;;2.60;99.90;;;;;;5004769;28;20751;-60
2021/04/06 04:52:10;;;;;;;6.80;3.10;;;2.60;99.90;;;;;;4999935;28;20647;-59
2021/04/06 04:54:35;;;;;;;8.30;2.97;;;2.70;99.90;;;;;;5000976;28;21349;-59
2021/04/06 04:57:15;;;;;;;6.53;2.60;;;2.70;99.90;;;;;;4999921;28;20192;-58
2021/04/06 05:00:01;;;;;;;5.83;3.00;;;2.70;99.90;;;;;;5001444;28;20235;-59
2021/04/06 05:02:37;;;;;;;;;;;;;;;;;;;;;
2021/04/06 05:05:12;;;;;;;6.17;2.70;;;2.70;99.90;;;;;;4996117;28;20629;-59
2021/04/06 05:07:47;;;;;;;6.57;3.10;;;2.60;99.90;;;;;;4997793;28;20653;-60
2021/04/06 05:10:18;;;;;;;6.67;2.83;;;2.70;99.90;;;;;;5014453;28;20771;-58
2021/04/06 05:13:00;;;;;;;7.03;3.10;;;2.60;99.90;;;;;;4996158;28;20654;-58
2021/04/06 05:15:29;;;;;;;10.87;2.97;;;2.60;99.90;;;;;;4980821;28;20800;-60
2021/04/06 05:17:54;;;;;;;10.23;2.17;;;2.60;99.90;;;;;;4985260;28;20715;-58
2021/04/06 05:20:22;;;;;;;13.03;3.47;;;2.60;99.90;;;;;;4998328;28;21160;-59
2021/04/06 05:22:49;;;;;;;6.33;2.37;;;2.60;99.90;;;;;;5000941;28;20238;-59
2021/04/06 05:25:15;;;;;;;7.90;2.30;;;2.70;99.90;;;;;;4994788;28;20730;-59
2021/04/06 05:27:40;;;;;;;10.77;3.30;;;2.70;99.90;;;;;;4993224;28;20760;-58
2021/04/06 05:30:16;;;;;;;6.77;2.30;;;2.80;99.90;;;;;;4994784;28;20285;-58
2021/04/06 05:32:42;;;;;;;6.73;2.60;;;2.80;99.90;;;;;;4989762;28;20274;-59
2021/04/06 05:35:10;;;;;;;8.50;2.50;;;2.90;99.90;;;;;;5002856;28;20754;-58
2021/04/06 05:37:35;;;;;;;10.73;2.80;;;2.80;99.90;;;;;;4986819;28;20200;-59
2021/04/06 05:40:02;;;;;;;6.90;3.17;;;2.90;99.90;;;;;;4980147;28;20876;-58
2021/04/06 05:42:28;;;;;;;9.03;3.30;;;2.90;99.90;;;;;;4983238;28;20431;-57
2021/04/06 05:44:54;;;;;;;4.77;2.30;;;3.00;99.90;;;;;;4984433;28;21206;-58
2021/04/06 05:47:26;;;;;;;7.60;2.40;;;2.90;99.90;;;;;;4989465;28;20730;-58
2021/04/06 05:50:04;;;;;;;7.50;2.60;;;3.10;99.90;;;;;;4976725;28;21534;-58
2021/04/06 05:52:31;;;;;;;9.77;2.67;;;3.20;99.90;;;;;;4976911;28;21975;-59
2021/04/06 05:55:01;;;;;;;11.10;2.50;;;3.10;99.90;;;;;;4978021;28;20619;-59
2021/04/06 05:57:28;;;;;;;10.00;2.93;;;3.10;99.90;;;;;;5001390;28;21069;-59
2021/04/06 05:59:53;;;;;;;9.07;2.80;;;3.30;99.90;;;;;;4971788;28;20673;-59
2021/04/06 06:02:19;;;;;;;8.80;2.43;;;3.30;99.90;;;;;;4980702;28;20642;-59
2021/04/06 06:04:45;;;;;;;8.30;1.90;;;3.30;99.90;;;;;;4969652;28;20642;-59
2021/04/06 06:07:13;;;;;;;7.93;2.20;;;3.30;99.90;;;;;;4979436;28;20678;-59
2021/04/06 06:09:40;;;;;;;3.93;1.60;;;3.40;99.90;;;;;;4974306;28;20266;-58
2021/04/06 06:12:13;;;;;;;3.93;1.80;;;3.40;99.90;;;;;;4988779;28;20647;-58
2021/04/06 06:14:41;;;;;;;5.77;2.10;;;3.50;99.90;;;;;;4987268;28;20699;-60
2021/04/06 06:17:24;;;;;;;5.80;1.80;;;3.70;99.90;;;;;;4981137;28;20614;-58
2021/04/06 06:19:53;;;;;;;7.13;2.23;;;3.70;99.90;;;;;;5001174;28;23035;-60
2021/04/06 06:22:31;;;;;;;4.70;1.80;;;3.60;99.90;;;;;;4987127;28;22722;-59
2021/04/06 06:25:07;;;;;;;4.37;1.80;;;3.70;99.90;;;;;;4983196;28;21670;-59
2021/04/06 06:27:45;;;;;;;2.80;1.70;;;3.70;99.90;;;;;;4982931;28;21448;-58
2021/04/06 06:30:31;;;;;;;2.03;1.20;;;3.50;99.90;;;;;;4979188;28;20657;-58
2021/04/06 06:33:18;;;;;;;3.10;1.60;;;3.30;99.90;;;;;;4981435;28;20971;-59
2021/04/06 06:35:48;;;;;;;4.23;1.80;;;3.10;99.90;;;;;;4979096;28;20649;-58
2021/04/06 06:38:15;;;;;;;3.90;2.03;;;3.00;99.90;;;;;;4983193;28;20668;-60
2021/04/06 06:40:42;;;;;;;9.50;2.50;;;2.90;99.90;;;;;;4978583;28;20806;-59
2021/04/06 06:43:14;;;;;;;3.57;1.87;;;2.70;99.90;;;;;;4970272;28;21347;-59
2021/04/06 06:45:41;;;;;;;7.80;2.27;;;2.80;99.90;;;;;;4996257;28;21162;-59
2021/04/06 06:48:07;;;;;;;4.57;2.07;;;2.90;99.90;;;;;;4983230;28;20772;-59
2021/04/06 06:50:50;;;;;;;8.90;3.10;;;3.00;99.90;;;;;;4989792;28;20896;-58
2021/04/06 06:53:36;;;;;;;4.97;2.10;;;3.00;99.90;;;;;;4995082;28;22404;-58
2021/04/06 06:56:03;;;;;;;7.90;2.77;;;3.00;99.90;;;;;;5000870;28;21193;-58
2021/04/06 06:58:35;;;;;;;5.33;2.47;;;3.00;99.90;;;;;;4995840;28;20634;-60
2021/04/06 07:01:03;;;;;;;10.70;3.60;;;3.10;99.90;;;;;;4996153;28;21204;-59
2021/04/06 07:03:29;;;;;;;12.83;3.43;;;3.20;99.90;;;;;;5001200;28;20768;-58
2021/04/06 07:05:55;;;;;;;10.00;2.93;;;3.40;99.90;;;;;;5010970;28;21460;-58
2021/04/06 07:08:33;;;;;;;9.57;3.40;;;3.50;99.90;;;;;;5001500;28;20221;-58
2021/04/06 07:11:00;;;;;;;9.37;2.80;;;3.50;99.90;;;;;;5002011;28;20657;-58
2021/04/06 07:13:33;;;;;;;11.20;3.13;;;3.60;99.90;;;;;;4986297;28;20634;-59
2021/04/06 07:16:00;;;;;;;6.67;3.20;;;3.70;99.90;;;;;;4992260;28;20678;-58
2021/04/06 07:18:27;;;;;;;12.80;3.60;;;3.80;99.90;;;;;;4982919;28;21089;-58
2021/04/06 07:21:05;;;;;;;5.83;2.30;;;4.00;99.90;;;;;;4989086;28;20769;-59
2021/04/06 07:23:39;;;;;;;4.93;2.73;;;4.00;99.90;;;;;;4968318;28;20730;-59
2021/04/06 07:26:07;;;;;;;4.23;2.13;;;4.00;99.90;;;;;;4968118;28;21051;-59
2021/04/06 07:28:33;;;;;;;5.70;2.30;;;4.00;99.90;;;;;;4965857;28;20646;-59
2021/04/06 07:30:58;;;;;;;7.27;2.23;;;3.90;99.90;;;;;;4967039;28;22692;-59
2021/04/06 07:33:27;;;;;;;13.77;3.03;;;3.80;99.90;;;;;;4983260;28;20660;-58
2021/04/06 07:35:54;;;;;;;6.63;2.67;;;3.90;99.90;;;;;;4982706;28;20637;-60
2021/04/06 07:38:22;;;;;;;7.70;2.63;;;3.70;99.90;;;;;;4984304;28;20618;-62
2021/04/06 07:40:48;;;;;;;4.73;2.30;;;3.70;99.90;;;;;;4981380;28;22709;-59
2021/04/06 07:43:16;;;;;;;8.13;3.03;;;3.60;99.90;;;;;;4997946;28;20649;-59
2021/04/06 07:45:43;;;;;;;11.57;3.00;;;3.60;99.90;;;;;;4996750;28;21181;-66
2021/04/06 07:48:11;;;;;;;7.00;2.57;;;3.60;99.90;;;;;;4998548;28;20764;-68
2021/04/06 07:50:43;;;;;;;4.73;2.27;;;3.70;99.90;;;;;;5011965;28;21495;-66
2021/04/06 07:53:20;;;;;;;3.77;1.83;;;3.70;99.90;;;;;;5004755;28;21644;-58
2021/04/06 07:55:46;;;;;;;5.90;1.83;;;3.80;99.90;;;;;;4999990;28;20676;-63
2021/04/06 07:58:42;;;;;;;5.03;1.97;;;4.00;99.90;;;;;;4989121;28;20751;-57
2021/04/06 08:01:08;;;;;;;4.50;1.90;;;4.10;99.90;;;;;;4997773;28;20269;-58
2021/04/06 08:03:49;;;;;;;7.23;1.70;;;4.00;99.90;;;;;;4987687;28;20704;-56
2021/04/06 08:06:45;;;;;;;2.87;1.73;;;4.10;99.90;;;;;;4991606;28;20634;-58
2021/04/06 08:09:36;;;;;;;9.43;1.80;;;4.00;99.90;;;;;;4991900;28;20745;-59
2021/04/06 08:12:08;;;;;;;3.00;1.73;;;4.00;99.90;;;;;;4989491;28;23179;-58
2021/04/06 08:14:47;;;;;;;6.03;1.50;;;4.00;99.90;;;;;;4988484;28;20709;-58
2021/04/06 08:17:25;;;;;;;5.73;1.60;;;3.80;99.90;;;;;;4985743;28;20736;-58
2021/04/06 08:19:58;;;;;;;6.87;1.43;;;3.70;99.90;;;;;;4988374;28;21212;-59
2021/04/06 08:22:30;;;;;;;6.60;1.80;;;3.60;99.90;;;;;;4993637;28;20773;-61
2021/04/06 08:25:28;;;;;;;5.83;1.93;;;3.30;99.90;;;;;;4985335;28;20852;-60
2021/04/06 08:27:59;;;;;;;6.67;1.60;;;3.30;99.90;;;;;;4975427;28;21184;-58
2021/04/06 08:30:33;;;;;;;5.80;1.87;;;3.30;99.90;;;;;;4981345;28;20646;-58
2021/04/06 08:32:59;;;;;;;5.97;2.27;;;3.30;99.90;;;;;;4995486;28;21242;-59
2021/04/06 08:35:43;;;;;;;4.00;1.53;;;3.20;99.90;;;;;;4978291;28;21183;-57
2021/04/06 08:38:31;;;;;;;3.63;1.40;;;3.20;99.90;;;;;;4972864;28;20293;-57
2021/04/06 08:41:10;;;;;;;1.90;1.43;;;3.20;99.90;;;;;;4976253;28;20638;-57
2021/04/06 08:43:46;;;;;;;2.40;1.60;;;3.30;99.90;;;;;;4978741;28;21299;-56
2021/04/06 08:46:14;;;;;;;6.17;1.90;;;3.40;99.90;;;;;;4982606;28;20625;-56
2021/04/06 08:48:43;;;;;;;2.40;1.50;;;3.50;99.90;;;;;;4975423;28;20670;-58
2021/04/06 08:51:39;;;;;;;7.03;1.77;;;3.70;99.90;;;;;;4986861;28;21051;-59
2021/04/06 08:54:08;;;;;;;2.93;1.77;;;3.90;99.90;;;;;;4983977;28;21567;-58
2021/04/06 08:56:37;;;;;;;2.43;1.40;;;4.00;99.90;;;;;;4990985;28;20618;-57
2021/04/06 08:59:23;;;;;;;2.93;2.00;;;4.20;99.90;;;;;;4986860;28;20895;-63
2021/04/06 09:01:57;;;;;;;5.70;1.90;;;4.40;99.90;;;;;;4979699;28;20800;-58
2021/04/06 09:04:25;;;;;;;7.40;2.00;;;4.60;99.90;;;;;;4977154;28;21070;-59
2021/04/06 09:06:52;;;;;;;7.47;2.07;;;4.60;99.90;;;;;;4989628;28;21211;-58
2021/04/06 09:09:23;;;;;;;5.33;1.87;;;4.80;99.90;;;;;;4977188;28;20666;-57
2021/04/06 09:11:52;;;;;;;4.70;1.40;;;4.90;99.90;;;;;;4982130;28;20777;-58
2021/04/06 09:14:18;;;;;;;7.00;1.50;;;5.10;99.90;;;;;;4995679;28;20618;-57
2021/04/06 09:16:44;;;;;;;3.30;1.67;;;5.10;99.90;;;;;;4978560;28;20874;-58
2021/04/06 09:19:12;;;;;;;3.47;1.60;;;5.10;99.90;;;;;;4974791;28;20622;-59
2021/04/06 09:21:42;;;;;;;3.90;1.50;;;5.00;99.90;;;;;;4994836;28;20195;-58
2021/04/06 09:24:10;;;;;;;1.70;1.30;;;4.90;99.90;;;;;;4978443;28;21825;-57
2021/04/06 09:26:38;;;;;;;1.43;1.13;;;4.70;99.90;;;;;;4976971;28;20638;-57
2021/04/06 09:29:11;;;;;;;3.30;1.33;;;4.60;99.90;;;;;;4975355;28;21247;-57
2021/04/06 09:31:41;;;;;;;4.97;1.40;;;4.40;99.90;;;;;;4977273;28;21202;-57
2021/04/06 09:34:19;;;;;;;3.77;1.30;;;4.30;99.90;;;;;;4964102;28;20626;-58
2021/04/06 09:36:52;;;;;;;2.20;1.27;;;4.20;99.90;;;;;;4973601;28;20689;-57
2021/04/06 09:39:18;;;;;;;2.70;1.57;;;4.20;99.90;;;;;;4998392;28;21293;-69
2021/04/06 09:41:45;;;;;;;1.50;1.20;;;4.00;99.90;;;;;;4978763;28;23972;-64
2021/04/06 09:44:15;;;;;;;3.07;1.50;;;4.00;99.90;;;;;;4971781;28;22494;-66
2021/04/06 09:46:50;;;;;;;2.87;1.60;;;4.10;99.90;;;;;;4977315;28;20793;-64
2021/04/06 09:49:17;;;;;;;3.07;1.13;;;4.10;99.90;;;;;;4983441;28;20722;-64
2021/04/06 09:52:05;;;;;;;3.27;1.60;;;4.10;99.90;;;;;;4973025;28;20669;-61
2021/04/06 09:54:39;;;;;;;3.37;1.33;;;4.30;99.90;;;;;;4990992;28;20586;-65
2021/04/06 09:57:10;;;;;;;6.43;2.30;;;4.30;99.90;;;;;;4994302;28;23539;-64
2021/04/06 09:59:43;;;;;;;6.30;2.10;;;4.50;99.90;;;;;;4974139;28;20800;-64
2021/04/06 10:02:15;;;;;;;3.73;2.40;;;4.80;99.90;;;;;;4978258;28;20681;-63
2021/04/06 10:04:46;;;;;;;7.40;2.87;;;4.90;99.90;;;;;;4977486;28;20618;-65
2021/04/06 10:07:22;;;;;;;6.60;3.00;;;4.90;99.90;;;;;;4984250;28;20622;-64
2021/04/06 10:09:49;;;;;;;5.50;2.10;;;4.80;99.90;;;;;;5007235;28;20753;-65
2021/04/06 10:12:17;;;;;;;5.10;2.53;;;4.60;99.90;;;;;;4984257;28;20780;-62
2021/04/06 10:14:44;;;;;;;3.03;2.17;;;4.50;99.90;;;;;;4982541;28;21102;-62
2021/04/06 10:17:32;;;;;;;6.33;3.10;;;4.50;99.90;;;;;;4978829;28;20619;-61
2021/04/06 10:20:01;;;;;;;2.60;2.07;;;4.40;99.90;;;;;;4974229;28;20669;-64
2021/04/06 10:22:37;;;;;;;3.53;2.13;;;4.40;99.90;;;;;;4976334;28;20651;-63
2021/04/06 10:25:05;;;;;;;3.30;2.17;;;4.50;99.90;;;;;;4975398;28;20590;-64
2021/04/06 10:27:38;;;;;;;3.50;1.83;;;4.60;99.90;;;;;;4982268;28;20650;-62
2021/04/06 10:30:11;;;;;;;2.53;1.50;;;4.60;99.90;;;;;;4973931;28;20700;-64
2021/04/06 10:32:48;;;;;;;4.20;1.70;;;4.70;99.90;;;;;;4972787;28;20638;-65
2021/04/06 10:35:26;;;;;;;7.10;1.77;;;4.80;99.90;;;;;;4979767;28;20625;-58
2021/04/06 10:37:55;;;;;;;4.00;1.83;;;5.00;99.90;;;;;;4977009;28;20618;-60
2021/04/06 10:40:33;;;;;;;3.63;1.70;;;5.10;99.90;;;;;;4977151;28;20713;-57
2021/04/06 10:43:07;;;;;;;4.00;2.00;;;5.10;99.90;;;;;;4982730;28;20795;-60
2021/04/06 10:45:41;;;;;;;4.80;2.17;;;5.20;99.90;;;;;;4977913;28;20757;-58
2021/04/06 10:48:22;;;;;;;10.63;3.00;;;5.30;99.90;;;;;;4974553;28;21239;-59
2021/04/06 10:51:16;;;;;;;4.03;1.73;;;5.30;99.90;;;;;;5001447;28;21522;-59
2021/04/06 10:53:42;;;;;;;5.07;2.10;;;5.30;99.90;;;;;;4957609;28;20674;-60
2021/04/06 10:56:13;;;;;;;4.10;2.50;;;5.50;99.90;;;;;;4981806;28;20623;-57
2021/04/06 10:58:44;;;;;;;5.30;2.47;;;5.50;99.90;;;;;;4971857;28;21060;-58
2021/04/06 11:01:18;;;;;;;3.07;1.87;;;5.50;99.90;;;;;;4967482;28;23037;-57
2021/04/06 11:03:50;;;;;;;2.53;2.13;;;5.30;99.90;;;;;;4971254;28;21714;-56
2021/04/06 11:06:37;;;;;;;5.00;1.93;;;5.20;99.90;;;;;;4979826;28;20687;-57
2021/04/06 11:09:20;;;;;;;4.90;1.80;;;4.90;99.90;;;;;;4972746;28;20676;-57
2021/04/06 11:11:48;;;;;;;2.23;1.67;;;4.60;99.90;;;;;;4969093;28;21018;-58
2021/04/06 11:14:18;;;;;;;3.23;1.53;;;4.30;99.90;;;;;;4985579;28;20625;-57
2021/04/06 11:16:47;;;;;;;1.90;1.10;;;4.30;99.90;;;;;;4971395;28;20615;-59
2021/04/06 11:19:26;;;;;;;4.90;1.63;;;4.20;99.90;;;;;;4975435;28;21205;-57
2021/04/06 11:21:59;;;;;;;2.80;1.30;;;4.20;99.90;;;;;;4964506;28;20645;-58
2021/04/06 11:24:29;;;;;;;2.63;1.27;;;4.30;99.90;;;;;;4956478;28;20625;-57
2021/04/06 11:26:57;;;;;;;5.23;1.20;;;4.30;99.90;;;;;;4990438;28;21144;-57
2021/04/06 11:29:25;;;;;;;3.60;1.10;;;4.40;99.90;;;;;;4975390;28;20949;-57
2021/04/06 11:31:54;;;;;;;1.90;1.07;;;4.50;99.90;;;;;;4971734;28;20750;-57
2021/04/06 11:34:20;;;;;;;2.00;1.20;;;4.50;99.90;;;;;;4971175;28;20656;-57
2021/04/06 11:36:47;;;;;;;6.83;1.97;;;4.70;99.90;;;;;;4991706;28;20618;-61
2021/04/06 11:39:16;;;;;;;3.00;1.53;;;4.90;99.90;;;;;;4971854;28;21304;-56
2021/04/06 11:41:44;;;;;;;4.23;1.70;;;5.00;99.90;;;;;;4971185;28;21374;-63
2021/04/06 11:44:13;;;;;;;3.70;1.80;;;5.30;99.90;;;;;;4976578;28;21048;-63
2021/04/06 11:46:39;;;;;;;7.23;2.30;;;5.40;99.90;;;;;;4977702;28;20954;-57
2021/04/06 11:49:07;;;;;;;5.67;1.60;;;5.60;99.90;;;;;;4973909;28;21196;-63
2021/04/06 11:51:33;;;;;;;7.53;1.50;;;5.80;99.90;;;;;;4985944;28;20748;-57
2021/04/06 11:53:59;;;;;;;1.83;1.27;;;5.80;99.90;;;;;;4994819;28;20696;-57
2021/04/06 11:56:24;;;;;;;2.17;1.50;;;6.10;99.90;;;;;;4995023;28;20630;-57
2021/04/06 11:58:50;;;;;;;3.87;1.10;;;6.40;99.90;;;;;;4992681;28;20514;-58
2021/04/06 12:01:16;;;;;;;6.13;1.60;;;6.40;99.90;;;;;;5004529;28;20587;-62
2021/04/06 12:03:41;;;;;;;6.07;1.63;;;6.60;99.90;;;;;;4984497;28;20255;-61
2021/04/06 12:06:07;;;;;;;3.70;1.33;;;6.60;99.90;;;;;;5008537;28;20214;-61
2021/04/06 12:08:33;;;;;;;4.50;1.40;;;6.80;99.90;;;;;;4988149;28;20245;-60
2021/04/06 12:11:01;;;;;;;6.13;1.70;;;6.80;99.90;;;;;;4988805;28;20224;-62
2021/04/06 12:13:26;;;;;;;4.57;1.50;;;6.80;99.90;;;;;;4991755;28;21268;-60
2021/04/06 12:15:52;;;;;;;2.63;1.50;;;6.90;99.90;;;;;;4981465;28;23154;-61
2021/04/06 12:18:18;;;;;;;3.70;1.43;;;7.00;99.90;;;;;;5003339;28;20229;-60
2021/04/06 12:20:45;;;;;;;3.40;1.73;;;7.20;99.90;;;;;;4998980;28;21425;-60
2021/04/06 12:23:11;;;;;;;4.20;1.60;;;7.40;99.90;;;;;;4989054;28;20246;-60
2021/04/06 12:25:37;;;;;;;4.17;1.40;;;7.50;99.90;;;;;;4983864;28;20749;-58
2021/04/06 12:28:03;;;;;;;4.67;1.40;;;7.90;99.90;;;;;;4981963;28;20856;-59
2021/04/06 12:30:29;;;;;;;4.07;1.83;;;8.00;99.90;;;;;;4984713;28;20286;-59
2021/04/06 12:32:55;;;;;;;3.83;1.37;;;8.30;99.90;;;;;;4974838;28;20297;-59
2021/04/06 12:35:21;;;;;;;2.30;1.30;;;8.20;99.90;;;;;;4982219;28;21185;-58
2021/04/06 12:37:46;;;;;;;3.67;1.43;;;8.20;99.90;;;;;;5003136;28;20665;-59
2021/04/06 12:40:12;;;;;;;2.73;0.93;;;8.20;99.90;;;;;;5002007;28;20750;-59
2021/04/06 12:42:38;;;;;;;3.93;1.23;;;8.50;99.90;;;;;;4981499;28;20720;-59
2021/04/06 12:45:07;;;;;;;2.37;1.10;;;8.70;99.90;;;;;;4980756;28;20203;-59
2021/04/06 12:47:33;;;;;;;3.90;1.57;;;8.70;99.90;;;;;;4980779;28;21236;-60
2021/04/06 12:50:00;;;;;;;3.10;1.10;;;8.50;99.90;;;;;;4996812;28;21171;-59
2021/04/06 12:52:25;;;;;;;4.40;1.50;;;8.20;99.90;;;;;;5002391;28;20813;-59
2021/04/06 12:54:51;;;;;;;2.90;1.30;;;8.10;99.90;;;;;;4997945;28;20633;-58
2021/04/06 12:57:16;;;;;;;2.03;1.20;;;8.10;99.90;;;;;;4998470;28;20188;-58
2021/04/06 12:59:42;;;;;;;2.63;1.03;;;8.20;99.90;;;;;;4994187;28;20254;-58
2021/04/06 13:02:08;;;;;;;1.63;0.90;;;8.60;99.90;;;;;;5005060;28;20220;-59
2021/04/06 13:04:34;;;;;;;2.00;0.80;;;8.80;99.90;;;;;;4996031;28;20977;-58
2021/04/06 13:07:00;;;;;;;2.70;0.90;;;9.00;99.90;;;;;;5021580;28;20622;-58
2021/04/06 13:09:26;;;;;;;2.13;0.90;;;9.00;99.90;;;;;;5010952;28;20215;-58
2021/04/06 13:11:51;;;;;;;2.00;1.10;;;9.40;99.90;;;;;;5004055;28;20630;-58
2021/04/06 13:14:17;;;;;;;4.07;1.23;;;9.70;99.90;;;;;;5005250;28;20184;-58
2021/04/06 13:16:42;;;;;;;3.03;1.30;;;9.90;99.90;;;;;;5002654;28;20196;-57
2021/04/06 13:19:08;;;;;;;4.13;1.47;;;9.90;99.90;;;;;;5007723;28;20574;-59
2021/04/06 13:21:34;;;;;;;3.57;1.50;;;10.10;99.90;;;;;;4994649;28;20196;-58
2021/04/06 13:24:00;;;;;;;4.10;1.20;;;9.80;99.90;;;;;;5003056;28;20198;-59
2021/04/06 13:26:26;;;;;;;2.50;0.73;;;9.70;99.90;;;;;;4997759;28;20815;-59
2021/04/06 13:28:52;;;;;;;2.77;0.90;;;9.20;99.90;;;;;;4999065;28;21542;-57